sensor_id;sensor_type;location;lat;lon;timestamp;pressure;altitude;pressure_sealevel;temperature;humidity
81937;BME280;71432;56.558;9.036;2023-12-29T00:01:47;99253.94;;;21.47;46.45
81937;BME280;71432;56.558;9.036;2023-12-29T00:04:12;99240.13;;;21.45;46.65
81937;BME280;71432;56.558;9.036;2023-12-29T00:06:39;99250.03;;;21.43;46.42
81937;BME280;71432;56.558;9.036;2023-12-29T00:09:04;99259.03;;;21.48;46.31
81937;BME280;71432;56.558;9.036;2023-12-29T00:11:29;99246.47;;;21.50;46.06
81937;BME280;71432;56.558;9.036;2023-12-29T00:13:55;99246.63;;;21.49;46.22
81937;BME280;71432;56.558;9.036;2023-12-29T00:16:20;99234.13;;;21.51;46.12
81937;BME280;71432;56.558;9.036;2023-12-29T00:18:46;99232.44;;;21.43;46.27
81937;BME280;71432;56.558;9.036;2023-12-29T00:21:11;99225.25;;;21.37;46.26
81937;BME280;71432;56.558;9.036;2023-12-29T00:23:36;99236.66;;;21.44;46.13
81937;BME280;71432;56.558;9.036;2023-12-29T00:26:02;99243.97;;;21.42;46.43
81937;BME280;71432;56.558;9.036;2023-12-29T00:28:27;99228.53;;;21.39;46.39
81937;BME280;71432;56.558;9.036;2023-12-29T00:30:52;99239.50;;;21.43;46.24
81937;BME280;71432;56.558;9.036;2023-12-29T00:33:18;99231.22;;;21.46;46.38
81937;BME280;71432;56.558;9.036;2023-12-29T00:35:43;99232.88;;;21.47;46.33
81937;BME280;71432;56.558;9.036;2023-12-29T00:38:08;99230.63;;;21.44;46.00
81937;BME280;71432;56.558;9.036;2023-12-29T00:40:34;99226.78;;;21.46;46.32
81937;BME280;71432;56.558;9.036;2023-12-29T00:43:02;99233.69;;;21.47;46.29
81937;BME280;71432;56.558;9.036;2023-12-29T00:45:27;99241.59;;;21.47;46.05
81937;BME280;71432;56.558;9.036;2023-12-29T00:48:01;99231.88;;;21.48;46.08
81937;BME280;71432;56.558;9.036;2023-12-29T00:50:26;99226.13;;;21.44;46.09
81937;BME280;71432;56.558;9.036;2023-12-29T00:52:51;99233.84;;;21.46;46.36
81937;BME280;71432;56.558;9.036;2023-12-29T00:55:17;99228.78;;;21.44;46.38
81937;BME280;71432;56.558;9.036;2023-12-29T00:57:42;99231.41;;;21.44;46.31
81937;BME280;71432;56.558;9.036;2023-12-29T01:00:11;99226.97;;;21.45;46.12
81937;BME280;71432;56.558;9.036;2023-12-29T01:02:37;99208.03;;;21.35;46.25
81937;BME280;71432;56.558;9.036;2023-12-29T01:05:03;99219.44;;;21.42;46.46
81937;BME280;71432;56.558;9.036;2023-12-29T01:07:28;99214.56;;;21.39;46.38
81937;BME280;71432;56.558;9.036;2023-12-29T01:09:54;99214.56;;;21.39;46.38
81937;BME280;71432;56.558;9.036;2023-12-29T01:12:20;99215.94;;;21.35;46.39
81937;BME280;71432;56.558;9.036;2023-12-29T01:14:45;99207.41;;;21.33;46.41
81937;BME280;71432;56.558;9.036;2023-12-29T01:17:10;99210.47;;;21.36;46.20
81937;BME280;71432;56.558;9.036;2023-12-29T01:19:36;99217.94;;;21.33;46.19
81937;BME280;71432;56.558;9.036;2023-12-29T01:22:01;99216.13;;;21.33;46.30
81937;BME280;71432;56.558;9.036;2023-12-29T01:24:27;99215.28;;;21.33;46.20
81937;BME280;71432;56.558;9.036;2023-12-29T01:26:52;99212.03;;;21.30;46.33
81937;BME280;71432;56.558;9.036;2023-12-29T01:29:17;99212.03;;;21.30;46.22
81937;BME280;71432;56.558;9.036;2023-12-29T01:31:42;99213.66;;;21.32;46.24
81937;BME280;71432;56.558;9.036;2023-12-29T01:34:08;99213.84;;;21.30;46.42
81937;BME280;71432;56.558;9.036;2023-12-29T01:36:33;99216.94;;;21.34;46.28
81937;BME280;71432;56.558;9.036;2023-12-29T01:38:58;99210.19;;;21.31;46.34
81937;BME280;71432;56.558;9.036;2023-12-29T01:41:24;99205.50;;;21.26;46.55
81937;BME280;71432;56.558;9.036;2023-12-29T01:46:31;99213.22;;;21.28;46.40
81937;BME280;71432;56.558;9.036;2023-12-29T01:48:58;99193.72;;;21.22;46.73
81937;BME280;71432;56.558;9.036;2023-12-29T01:51:26;99188.88;;;21.26;46.45
81937;BME280;71432;56.558;9.036;2023-12-29T01:53:52;99190.91;;;21.24;46.57
81937;BME280;71432;56.558;9.036;2023-12-29T01:56:19;99196.00;;;21.25;46.70
81937;BME280;71432;56.558;9.036;2023-12-29T01:58:46;99186.25;;;21.26;46.69
81937;BME280;71432;56.558;9.036;2023-12-29T02:01:14;99176.53;;;21.26;46.65
81937;BME280;71432;56.558;9.036;2023-12-29T02:03:39;99174.47;;;21.22;46.51
81937;BME280;71432;56.558;9.036;2023-12-29T02:06:06;99164.16;;;21.20;46.65
81937;BME280;71432;56.558;9.036;2023-12-29T02:08:31;99168.84;;;21.25;46.42
81937;BME280;71432;56.558;9.036;2023-12-29T02:10:57;99158.50;;;21.23;46.25
81937;BME280;71432;56.558;9.036;2023-12-29T02:13:23;99165.59;;;21.23;46.38
81937;BME280;71432;56.558;9.036;2023-12-29T02:15:50;99161.94;;;21.24;46.46
81937;BME280;71432;56.558;9.036;2023-12-29T02:18:18;99151.81;;;21.21;46.32
81937;BME280;71432;56.558;9.036;2023-12-29T02:20:45;99147.53;;;21.20;46.54
81937;BME280;71432;56.558;9.036;2023-12-29T02:23:11;99152.97;;;21.18;46.50
81937;BME280;71432;56.558;9.036;2023-12-29T02:25:36;99140.66;;;21.19;46.43
81937;BME280;71432;56.558;9.036;2023-12-29T02:30:53;99135.75;;;21.16;46.66
81937;BME280;71432;56.558;9.036;2023-12-29T02:33:22;99127.22;;;21.14;46.58
81937;BME280;71432;56.558;9.036;2023-12-29T02:35:48;99131.09;;;21.18;46.72
81937;BME280;71432;56.558;9.036;2023-12-29T02:38:16;99121.56;;;21.17;46.51
81937;BME280;71432;56.558;9.036;2023-12-29T02:40:42;99124.22;;;21.17;46.51
81937;BME280;71432;56.558;9.036;2023-12-29T02:43:08;99113.69;;;21.17;46.45
81937;BME280;71432;56.558;9.036;2023-12-29T02:45:34;99101.91;;;21.13;46.58
81937;BME280;71432;56.558;9.036;2023-12-29T02:47:59;99114.50;;;21.17;46.45
81937;BME280;71432;56.558;9.036;2023-12-29T02:50:25;99098.09;;;21.15;46.71
81937;BME280;71432;56.558;9.036;2023-12-29T02:52:50;99102.72;;;21.13;46.60
81937;BME280;71432;56.558;9.036;2023-12-29T02:55:15;99100.44;;;21.10;46.77
81937;BME280;71432;56.558;9.036;2023-12-29T02:57:41;99090.06;;;21.02;46.85
81937;BME280;71432;56.558;9.036;2023-12-29T03:00:06;99096.00;;;21.11;46.93
81937;BME280;71432;56.558;9.036;2023-12-29T03:02:32;99096.81;;;21.11;46.81
81937;BME280;71432;56.558;9.036;2023-12-29T03:04:58;99096.00;;;21.11;46.75
81937;BME280;71432;56.558;9.036;2023-12-29T03:07:23;99085.81;;;21.08;46.63
81937;BME280;71432;56.558;9.036;2023-12-29T03:09:49;99089.75;;;21.12;46.59
81937;BME280;71432;56.558;9.036;2023-12-29T03:12:14;99089.56;;;21.13;46.65
81937;BME280;71432;56.558;9.036;2023-12-29T03:14:39;99080.22;;;21.11;46.38
81937;BME280;71432;56.558;9.036;2023-12-29T03:17:04;99073.97;;;21.12;46.49
81937;BME280;71432;56.558;9.036;2023-12-29T03:19:30;99059.81;;;21.13;46.70
81937;BME280;71432;56.558;9.036;2023-12-29T03:21:55;99073.97;;;21.12;46.69
81937;BME280;71432;56.558;9.036;2023-12-29T03:24:20;99051.19;;;21.04;46.50
81937;BME280;71432;56.558;9.036;2023-12-29T03:26:46;99060.16;;;21.10;46.62
81937;BME280;71432;56.558;9.036;2023-12-29T03:29:11;99058.34;;;21.10;46.65
81937;BME280;71432;56.558;9.036;2023-12-29T03:31:37;99041.09;;;21.08;46.98
81937;BME280;71432;56.558;9.036;2023-12-29T03:34:02;99040.53;;;21.12;46.73
81937;BME280;71432;56.558;9.036;2023-12-29T03:36:27;99036.66;;;21.08;46.59
81937;BME280;71432;56.558;9.036;2023-12-29T03:38:53;99028.41;;;21.11;46.56
81937;BME280;71432;56.558;9.036;2023-12-29T03:41:18;99033.66;;;21.11;46.60
81937;BME280;71432;56.558;9.036;2023-12-29T03:43:44;99024.72;;;21.06;46.59
81937;BME280;71432;56.558;9.036;2023-12-29T03:46:22;99023.50;;;21.08;46.57
81937;BME280;71432;56.558;9.036;2023-12-29T03:48:47;99022.69;;;21.08;46.55
81937;BME280;71432;56.558;9.036;2023-12-29T03:51:13;99022.91;;;21.06;46.75
81937;BME280;71432;56.558;9.036;2023-12-29T03:53:39;99018.06;;;21.10;46.40
81937;BME280;71432;56.558;9.036;2023-12-29T03:56:08;99026.13;;;21.08;46.71
81937;BME280;71432;56.558;9.036;2023-12-29T03:58:34;99018.25;;;21.08;46.51
81937;BME280;71432;56.558;9.036;2023-12-29T04:01:00;99017.63;;;21.06;46.58
81937;BME280;71432;56.558;9.036;2023-12-29T04:03:25;99018.25;;;21.08;46.65
81937;BME280;71432;56.558;9.036;2023-12-29T04:05:51;99019.28;;;21.07;46.75
81937;BME280;71432;56.558;9.036;2023-12-29T04:08:16;99006.13;;;21.07;46.60
81937;BME280;71432;56.558;9.036;2023-12-29T04:10:41;99015.44;;;21.10;46.60
81937;BME280;71432;56.558;9.036;2023-12-29T04:13:07;99002.03;;;21.05;46.48
81937;BME280;71432;56.558;9.036;2023-12-29T04:15:32;99000.38;;;21.04;46.61
81937;BME280;71432;56.558;9.036;2023-12-29T04:17:57;99004.91;;;21.10;46.48
81937;BME280;71432;56.558;9.036;2023-12-29T04:20:23;98999.81;;;21.08;46.49
81937;BME280;71432;56.558;9.036;2023-12-29T04:22:49;99008.34;;;21.10;46.50
81937;BME280;71432;56.558;9.036;2023-12-29T04:25:15;99007.94;;;21.07;46.68
81937;BME280;71432;56.558;9.036;2023-12-29T04:27:40;99015.44;;;21.10;47.06
81937;BME280;71432;56.558;9.036;2023-12-29T04:30:06;99019.69;;;21.11;46.51
81937;BME280;71432;56.558;9.036;2023-12-29T04:32:32;99006.13;;;21.07;46.78
81937;BME280;71432;56.558;9.036;2023-12-29T04:34:57;99014.63;;;21.09;46.58
81937;BME280;71432;56.558;9.036;2023-12-29T04:37:23;99009.34;;;21.09;46.81
81937;BME280;71432;56.558;9.036;2023-12-29T04:39:48;99006.28;;;21.06;46.87
81937;BME280;71432;56.558;9.036;2023-12-29T04:42:14;99002.78;;;20.99;46.99
81937;BME280;71432;56.558;9.036;2023-12-29T04:44:39;99000.59;;;21.02;46.83
81937;BME280;71432;56.558;9.036;2023-12-29T04:47:04;99002.03;;;21.05;46.64
81937;BME280;71432;56.558;9.036;2023-12-29T04:49:30;99008.91;;;21.06;46.89
81937;BME280;71432;56.558;9.036;2023-12-29T04:51:55;98992.88;;;21.01;46.60
81937;BME280;71432;56.558;9.036;2023-12-29T04:54:20;98999.78;;;21.02;47.21
81937;BME280;71432;56.558;9.036;2023-12-29T04:56:45;99001.41;;;21.03;46.64
81937;BME280;71432;56.558;9.036;2023-12-29T04:59:11;98993.06;;;20.99;46.94
81937;BME280;71432;56.558;9.036;2023-12-29T05:01:36;98992.47;;;20.97;46.99
81937;BME280;71432;56.558;9.036;2023-12-29T05:04:01;98993.88;;;21.00;46.90
81937;BME280;71432;56.558;9.036;2023-12-29T05:06:27;98999.13;;;21.00;47.07
81937;BME280;71432;56.558;9.036;2023-12-29T05:08:52;98984.91;;;20.94;46.66
81937;BME280;71432;56.558;9.036;2023-12-29T05:11:17;98989.00;;;20.97;46.75
81937;BME280;71432;56.558;9.036;2023-12-29T05:13:43;98982.94;;;20.96;46.83
81937;BME280;71432;56.558;9.036;2023-12-29T05:16:08;98985.75;;;20.95;46.78
81937;BME280;71432;56.558;9.036;2023-12-29T05:18:33;98986.56;;;20.95;46.95
81937;BME280;71432;56.558;9.036;2023-12-29T05:20:59;98977.84;;;20.95;46.53
81937;BME280;71432;56.558;9.036;2023-12-29T05:23:24;98981.13;;;20.97;47.01
81937;BME280;71432;56.558;9.036;2023-12-29T05:25:49;98967.53;;;20.93;46.64
81937;BME280;71432;56.558;9.036;2023-12-29T05:28:15;98982.13;;;20.96;46.84
81937;BME280;71432;56.558;9.036;2023-12-29T05:30:40;98975.03;;;20.96;46.86
81937;BME280;71432;56.558;9.036;2023-12-29T05:33:05;98974.84;;;20.98;47.04
81937;BME280;71432;56.558;9.036;2023-12-29T05:35:31;98974.22;;;20.96;46.96
81937;BME280;71432;56.558;9.036;2023-12-29T05:37:56;98976.84;;;20.96;46.66
81937;BME280;71432;56.558;9.036;2023-12-29T05:40:21;98972.78;;;20.93;47.03
81937;BME280;71432;56.558;9.036;2023-12-29T05:42:46;98982.13;;;20.96;46.86
81937;BME280;71432;56.558;9.036;2023-12-29T05:45:12;98984.34;;;20.99;46.99
81937;BME280;71432;56.558;9.036;2023-12-29T05:47:37;98975.69;;;20.98;47.06
81937;BME280;71432;56.558;9.036;2023-12-29T05:50:03;98981.72;;;20.99;46.96
81937;BME280;71432;56.558;9.036;2023-12-29T05:52:28;98970.41;;;20.98;46.90
81937;BME280;71432;56.558;9.036;2023-12-29T05:54:54;98975.69;;;20.98;46.99
81937;BME280;71432;56.558;9.036;2023-12-29T05:57:19;98979.91;;;20.99;47.17
81937;BME280;71432;56.558;9.036;2023-12-29T05:59:44;98966.31;;;20.96;46.93
81937;BME280;71432;56.558;9.036;2023-12-29T06:02:10;98968.56;;;20.99;46.86
81937;BME280;71432;56.558;9.036;2023-12-29T06:04:35;98968.38;;;21.00;46.88
81937;BME280;71432;56.558;9.036;2023-12-29T06:07:00;98976.47;;;20.99;46.75
81937;BME280;71432;56.558;9.036;2023-12-29T06:09:26;98967.31;;;20.95;46.81
81937;BME280;71432;56.558;9.036;2023-12-29T06:11:52;98959.00;;;20.91;46.97
81937;BME280;71432;56.558;9.036;2023-12-29T06:14:17;98969.59;;;20.98;46.81
81937;BME280;71432;56.558;9.036;2023-12-29T06:16:42;98963.28;;;20.92;46.89
81937;BME280;71432;56.558;9.036;2023-12-29T06:19:08;98972.41;;;20.96;47.00
81937;BME280;71432;56.558;9.036;2023-12-29T06:21:43;98972.22;;;20.98;47.02
81937;BME280;71432;56.558;9.036;2023-12-29T06:24:09;98970.78;;;20.95;46.79
81937;BME280;71432;56.558;9.036;2023-12-29T06:26:35;98981.50;;;20.94;46.72
81937;BME280;71432;56.558;9.036;2023-12-29T06:29:00;98978.88;;;20.94;46.75
81937;BME280;71432;56.558;9.036;2023-12-29T06:31:25;98972.34;;;20.90;47.05
81937;BME280;71432;56.558;9.036;2023-12-29T06:33:51;98984.13;;;20.94;46.78
81937;BME280;71432;56.558;9.036;2023-12-29T06:36:16;98982.50;;;20.93;46.90
81937;BME280;71432;56.558;9.036;2023-12-29T06:38:42;98969.09;;;20.88;46.85
81937;BME280;71432;56.558;9.036;2023-12-29T06:41:11;98990.38;;;20.93;46.96
81937;BME280;71432;56.558;9.036;2023-12-29T06:43:37;98990.19;;;20.94;46.95
81937;BME280;71432;56.558;9.036;2023-12-29T06:46:02;98986.75;;;20.94;46.91
81937;BME280;71432;56.558;9.036;2023-12-29T06:48:28;98998.72;;;20.96;46.70
81937;BME280;71432;56.558;9.036;2023-12-29T06:50:53;98979.47;;;20.96;46.86
81937;BME280;71432;56.558;9.036;2023-12-29T06:53:18;98980.28;;;20.96;46.87
81937;BME280;71432;56.558;9.036;2023-12-29T06:55:44;98979.09;;;20.99;47.00
81937;BME280;71432;56.558;9.036;2023-12-29T06:58:09;98999.13;;;21.00;46.91
81937;BME280;71432;56.558;9.036;2023-12-29T07:00:35;98997.50;;;20.99;47.08
81937;BME280;71432;56.558;9.036;2023-12-29T07:03:01;98996.91;;;20.97;46.82
81937;BME280;71432;56.558;9.036;2023-12-29T07:05:26;98999.97;;;21.00;47.04
81937;BME280;71432;56.558;9.036;2023-12-29T07:07:52;99003.03;;;21.04;47.14
81937;BME280;71432;56.558;9.036;2023-12-29T07:10:17;98998.78;;;21.03;46.86
81937;BME280;71432;56.558;9.036;2023-12-29T07:12:43;99000.78;;;21.01;47.04
81937;BME280;71432;56.558;9.036;2023-12-29T07:15:08;99006.47;;;21.04;46.95
81937;BME280;71432;56.558;9.036;2023-12-29T07:17:34;98993.53;;;21.03;47.01
81937;BME280;71432;56.558;9.036;2023-12-29T07:20:00;98999.38;;;21.05;46.99
81937;BME280;71432;56.558;9.036;2023-12-29T07:22:26;98990.69;;;21.04;47.14
81937;BME280;71432;56.558;9.036;2023-12-29T07:24:51;98998.22;;;21.07;46.92
81937;BME280;71432;56.558;9.036;2023-12-29T07:27:16;98996.59;;;21.06;46.95
81937;BME280;71432;56.558;9.036;2023-12-29T07:29:42;98998.66;;;21.11;47.02
81937;BME280;71432;56.558;9.036;2023-12-29T07:32:07;99002.91;;;21.12;47.01
81937;BME280;71432;56.558;9.036;2023-12-29T07:34:33;98991.13;;;21.08;46.97
81937;BME280;71432;56.558;9.036;2023-12-29T07:36:59;99005.19;;;21.15;46.95
81937;BME280;71432;56.558;9.036;2023-12-29T07:39:24;99003.38;;;21.15;46.77
81937;BME280;71432;56.558;9.036;2023-12-29T07:41:50;99010.44;;;21.15;46.94
81937;BME280;71432;56.558;9.036;2023-12-29T07:44:16;99005.19;;;21.15;46.82
81937;BME280;71432;56.558;9.036;2023-12-29T07:46:43;98990.53;;;21.12;47.08
81937;BME280;71432;56.558;9.036;2023-12-29T07:49:09;99014.50;;;21.17;47.03
81937;BME280;71432;56.558;9.036;2023-12-29T07:51:42;99007.81;;;21.15;46.85
81937;BME280;71432;56.558;9.036;2023-12-29T07:54:08;99009.44;;;21.16;47.06
81937;BME280;71432;56.558;9.036;2023-12-29T07:56:33;99017.34;;;21.16;47.37
81937;BME280;71432;56.558;9.036;2023-12-29T07:58:59;99019.97;;;21.16;47.24
81937;BME280;71432;56.558;9.036;2023-12-29T08:01:24;99019.78;;;21.17;47.27
81937;BME280;71432;56.558;9.036;2023-12-29T08:03:50;99011.88;;;21.17;47.34
81937;BME280;71432;56.558;9.036;2023-12-29T08:06:16;99012.25;;;21.14;46.78
81937;BME280;71432;56.558;9.036;2023-12-29T08:08:41;99013.69;;;21.17;47.17
81937;BME280;71432;56.558;9.036;2023-12-29T08:11:13;99005.72;;;21.10;47.25
81937;BME280;71432;56.558;9.036;2023-12-29T08:13:39;99029.28;;;21.18;47.13
81937;BME280;71432;56.558;9.036;2023-12-29T08:16:05;99018.78;;;21.18;47.34
81937;BME280;71432;56.558;9.036;2023-12-29T08:18:32;99021.78;;;21.15;47.34
81937;BME280;71432;56.558;9.036;2023-12-29T08:20:57;99008.19;;;21.12;47.34
81937;BME280;71432;56.558;9.036;2023-12-29T08:23:25;99019.97;;;21.16;47.35
81937;BME280;71432;56.558;9.036;2023-12-29T08:25:51;99015.06;;;21.13;47.49
81937;BME280;71432;56.558;9.036;2023-12-29T08:28:17;99012.50;;;21.19;47.30
81937;BME280;71432;56.558;9.036;2023-12-29T08:30:42;99027.47;;;21.19;47.54
81937;BME280;71432;56.558;9.036;2023-12-29T08:33:10;99025.50;;;21.21;47.08
81937;BME280;71432;56.558;9.036;2023-12-29T08:35:37;99030.53;;;21.22;47.18
81937;BME280;71432;56.558;9.036;2023-12-29T08:38:03;99023.47;;;21.23;47.48
81937;BME280;71432;56.558;9.036;2023-12-29T08:40:29;99018.19;;;21.23;47.51
81937;BME280;71432;56.558;9.036;2023-12-29T08:42:54;99030.53;;;21.22;47.37
81937;BME280;71432;56.558;9.036;2023-12-29T08:45:20;99028.13;;;21.21;47.54
81937;BME280;71432;56.558;9.036;2023-12-29T08:47:45;99027.91;;;21.22;47.37
81937;BME280;71432;56.558;9.036;2023-12-29T08:50:11;99025.66;;;21.19;47.38
81937;BME280;71432;56.558;9.036;2023-12-29T08:52:36;99034.81;;;21.23;47.36
81937;BME280;71432;56.558;9.036;2023-12-29T08:55:01;99047.97;;;21.23;47.29
81937;BME280;71432;56.558;9.036;2023-12-29T08:57:27;99050.41;;;21.25;47.46
81937;BME280;71432;56.558;9.036;2023-12-29T08:59:57;99041.72;;;21.24;47.70
81937;BME280;71432;56.558;9.036;2023-12-29T09:02:22;99036.44;;;21.24;47.74
81937;BME280;71432;56.558;9.036;2023-12-29T09:04:47;99039.91;;;21.25;47.54
81937;BME280;71432;56.558;9.036;2023-12-29T09:07:13;99050.78;;;21.22;47.56
81937;BME280;71432;56.558;9.036;2023-12-29T09:09:38;99048.97;;;21.22;47.66
81937;BME280;71432;56.558;9.036;2023-12-29T09:12:04;99046.59;;;21.27;47.66
81937;BME280;71432;56.558;9.036;2023-12-29T09:14:30;99058.94;;;21.27;47.71
81937;BME280;71432;56.558;9.036;2023-12-29T09:16:57;99052.03;;;21.26;47.70
81937;BME280;71432;56.558;9.036;2023-12-29T09:19:23;99042.31;;;21.26;47.41
81937;BME280;71432;56.558;9.036;2023-12-29T09:21:48;99053.66;;;21.27;47.50
81937;BME280;71432;56.558;9.036;2023-12-29T09:24:13;99051.84;;;21.27;47.53
81937;BME280;71432;56.558;9.036;2023-12-29T09:26:38;99054.88;;;21.24;47.78
81937;BME280;71432;56.558;9.036;2023-12-29T09:29:04;99067.22;;;21.24;47.65
81937;BME280;71432;56.558;9.036;2023-12-29T09:31:29;99060.31;;;21.23;47.85
81937;BME280;71432;56.558;9.036;2023-12-29T09:33:54;99050.16;;;21.20;47.71
81937;BME280;71432;56.558;9.036;2023-12-29T09:36:21;99069.66;;;21.25;47.79
81937;BME280;71432;56.558;9.036;2023-12-29T09:38:47;99078.72;;;21.23;47.95
81937;BME280;71432;56.558;9.036;2023-12-29T09:41:14;99079.81;;;21.28;47.57
81937;BME280;71432;56.558;9.036;2023-12-29T09:43:41;99074.53;;;21.28;47.52
81937;BME280;71432;56.558;9.036;2023-12-29T09:46:08;99073.28;;;21.24;47.75
81937;BME280;71432;56.558;9.036;2023-12-29T09:48:36;99066.97;;;21.19;47.69
81937;BME280;71432;56.558;9.036;2023-12-29T09:51:04;99071.72;;;21.30;47.41
81937;BME280;71432;56.558;9.036;2023-12-29T09:53:30;99066.47;;;21.30;47.36
81937;BME280;71432;56.558;9.036;2023-12-29T09:55:57;99068.28;;;21.29;47.77
81937;BME280;71432;56.558;9.036;2023-12-29T09:58:25;99060.13;;;21.24;47.78
81937;BME280;71432;56.558;9.036;2023-12-29T10:00:51;99070.28;;;21.27;47.83
81937;BME280;71432;56.558;9.036;2023-12-29T10:03:16;99067.81;;;21.26;47.69
81937;BME280;71432;56.558;9.036;2023-12-29T10:05:44;99067.63;;;21.27;47.57
81937;BME280;71432;56.558;9.036;2023-12-29T10:08:12;99088.09;;;21.25;47.86
81937;BME280;71432;56.558;9.036;2023-12-29T10:10:39;99113.84;;;21.30;47.83
81937;BME280;71432;56.558;9.036;2023-12-29T10:13:09;99111.22;;;21.30;47.95
81937;BME280;71432;56.558;9.036;2023-12-29T10:15:47;99100.03;;;21.28;48.06
81937;BME280;71432;56.558;9.036;2023-12-29T10:18:20;99108.75;;;21.28;47.98
81937;BME280;71432;56.558;9.036;2023-12-29T10:25:57;99090.06;;;21.23;47.86
81937;BME280;71432;56.558;9.036;2023-12-29T10:28:23;99088.69;;;21.27;47.96
81937;BME280;71432;56.558;9.036;2023-12-29T10:30:49;99073.09;;;21.26;47.83
81937;BME280;71432;56.558;9.036;2023-12-29T10:33:20;99069.28;;;21.28;47.55
81937;BME280;71432;56.558;9.036;2023-12-29T10:36:00;99064.44;;;21.32;47.69
81937;BME280;71432;56.558;9.036;2023-12-29T10:38:30;99053.31;;;21.30;47.67
81937;BME280;71432;56.558;9.036;2023-12-29T10:43:40;99053.91;;;21.32;47.78
81937;BME280;71432;56.558;9.036;2023-12-29T10:46:07;99046.00;;;21.32;48.02
81937;BME280;71432;56.558;9.036;2023-12-29T10:48:36;99049.06;;;21.36;47.82
81937;BME280;71432;56.558;9.036;2023-12-29T10:51:02;99042.78;;;21.30;48.08
81937;BME280;71432;56.558;9.036;2023-12-29T10:53:30;99046.66;;;21.34;47.92
81937;BME280;71432;56.558;9.036;2023-12-29T10:55:55;99046.00;;;21.32;47.71
81937;BME280;71432;56.558;9.036;2023-12-29T10:58:22;99047.41;;;21.28;47.88
81937;BME280;71432;56.558;9.036;2023-12-29T11:00:50;99043.53;;;21.24;47.62
81937;BME280;71432;56.558;9.036;2023-12-29T11:03:15;99048.59;;;21.25;47.64
81937;BME280;71432;56.558;9.036;2023-12-29T11:05:43;99049.59;;;21.24;47.65
81937;BME280;71432;56.558;9.036;2023-12-29T11:08:19;99042.72;;;21.23;47.88
81937;BME280;71432;56.558;9.036;2023-12-29T11:10:46;99034.16;;;21.21;47.85
81937;BME280;71432;56.558;9.036;2023-12-29T11:13:12;99029.72;;;21.22;47.65
81937;BME280;71432;56.558;9.036;2023-12-29T11:15:44;99036.88;;;21.28;47.59
81937;BME280;71432;56.558;9.036;2023-12-29T11:18:14;99027.97;;;21.29;47.52
81937;BME280;71432;56.558;9.036;2023-12-29T11:20:41;99031.59;;;21.28;47.70
81937;BME280;71432;56.558;9.036;2023-12-29T11:23:09;99026.53;;;21.26;47.52
81937;BME280;71432;56.558;9.036;2023-12-29T11:25:34;99026.16;;;21.29;47.80
81937;BME280;71432;56.558;9.036;2023-12-29T11:28:00;99020.69;;;21.31;47.66
81937;BME280;71432;56.558;9.036;2023-12-29T11:30:26;99023.88;;;21.26;47.58
81937;BME280;71432;56.558;9.036;2023-12-29T11:32:54;99022.06;;;21.27;47.66
81937;BME280;71432;56.558;9.036;2023-12-29T11:35:49;99021.25;;;21.26;47.62
81937;BME280;71432;56.558;9.036;2023-12-29T11:38:23;99020.25;;;21.27;47.44
81937;BME280;71432;56.558;9.036;2023-12-29T11:43:26;99012.78;;;21.31;47.95
81937;BME280;71432;56.558;9.036;2023-12-29T11:45:51;99007.91;;;21.28;47.94
81937;BME280;71432;56.558;9.036;2023-12-29T11:51:31;99003.88;;;21.25;48.09
81937;BME280;71432;56.558;9.036;2023-12-29T11:53:57;99007.09;;;21.27;47.74
81937;BME280;71432;56.558;9.036;2023-12-29T11:56:22;99003.22;;;21.23;47.84
81937;BME280;71432;56.558;9.036;2023-12-29T11:58:48;98998.16;;;21.22;48.08
81937;BME280;71432;56.558;9.036;2023-12-29T12:01:14;98994.69;;;21.21;48.02
81937;BME280;71432;56.558;9.036;2023-12-29T12:03:58;98977.47;;;21.19;47.88
81937;BME280;71432;56.558;9.036;2023-12-29T12:06:39;98987.81;;;21.20;48.10
81937;BME280;71432;56.558;9.036;2023-12-29T12:09:22;98988.66;;;21.21;48.00
81937;BME280;71432;56.558;9.036;2023-12-29T12:11:49;98990.47;;;21.20;48.13
81937;BME280;71432;56.558;9.036;2023-12-29T12:16:58;98979.13;;;21.20;48.09
81937;BME280;71432;56.558;9.036;2023-12-29T12:19:24;98990.47;;;21.20;47.78
81937;BME280;71432;56.558;9.036;2023-12-29T12:21:53;98988.66;;;21.21;47.76
81937;BME280;71432;56.558;9.036;2023-12-29T12:24:20;98987.00;;;21.20;48.14
81937;BME280;71432;56.558;9.036;2023-12-29T12:26:45;98973.03;;;21.19;47.86
81937;BME280;71432;56.558;9.036;2023-12-29T12:29:13;98980.13;;;21.19;48.10
81937;BME280;71432;56.558;9.036;2023-12-29T12:31:59;98976.28;;;21.21;47.93
81937;BME280;71432;56.558;9.036;2023-12-29T12:34:24;98975.25;;;21.16;48.03
81937;BME280;71432;56.558;9.036;2023-12-29T12:36:51;98981.75;;;21.20;48.04
81937;BME280;71432;56.558;9.036;2023-12-29T12:39:17;98971.41;;;21.18;47.85
81937;BME280;71432;56.558;9.036;2023-12-29T12:41:43;98966.13;;;21.18;48.12
81937;BME280;71432;56.558;9.036;2023-12-29T12:44:15;98973.22;;;21.18;47.96
81937;BME280;71432;56.558;9.036;2023-12-29T12:46:49;98958.81;;;21.14;47.92
81937;BME280;71432;56.558;9.036;2023-12-29T12:49:16;98973.03;;;21.19;47.75
81937;BME280;71432;56.558;9.036;2023-12-29T12:51:42;98963.91;;;21.15;47.84
81937;BME280;71432;56.558;9.036;2023-12-29T12:54:09;98963.69;;;21.17;47.74
81937;BME280;71432;56.558;9.036;2023-12-29T12:56:35;98966.97;;;21.19;47.83
81937;BME280;71432;56.558;9.036;2023-12-29T12:59:04;98958.63;;;21.15;48.00
81937;BME280;71432;56.558;9.036;2023-12-29T13:01:34;98960.28;;;21.16;48.12
81937;BME280;71432;56.558;9.036;2023-12-29T13:04:01;98960.06;;;21.18;47.94
81937;BME280;71432;56.558;9.036;2023-12-29T13:06:28;98956.63;;;21.17;47.90
81937;BME280;71432;56.558;9.036;2023-12-29T13:08:53;98954.56;;;21.13;48.00
81937;BME280;71432;56.558;9.036;2023-12-29T13:11:19;98948.13;;;21.15;47.73
81937;BME280;71432;56.558;9.036;2023-12-29T13:13:50;98946.47;;;21.14;47.61
81937;BME280;71432;56.558;9.036;2023-12-29T13:16:29;98952.56;;;21.15;47.88
81937;BME280;71432;56.558;9.036;2023-12-29T13:18:54;98945.38;;;21.09;47.98